sensor_id;sensor_type;location;lat;lon;timestamp;pressure;altitude;pressure_sealevel;temperature;humidity
63654;BME280;49809;47.418;19.080;2022-08-24T00:02:29;100365.31;;;18.75;100.00
63654;BME280;49809;47.418;19.080;2022-08-24T00:05:37;100367.53;;;18.73;100.00
63654;BME280;49809;47.418;19.080;2022-08-24T00:08:41;100366.56;;;18.69;100.00
63654;BME280;49809;47.418;19.080;2022-08-24T00:11:46;100357.38;;;18.70;100.00
63654;BME280;49809;47.418;19.080;2022-08-24T00:14:52;100349.22;;;18.75;100.00
63654;BME280;49809;47.418;19.080;2022-08-24T00:17:58;100351.44;;;18.73;100.00
63654;BME280;49809;47.418;19.080;2022-08-24T00:21:04;100354.41;;;18.71;100.00
63654;BME280;49809;47.418;19.080;2022-08-24T00:24:07;100356.19;;;18.76;100.00
63654;BME280;49809;47.418;19.080;2022-08-24T00:27:11;100350.62;;;18.72;100.00
63654;BME280;49809;47.418;19.080;2022-08-24T00:30:16;100352.53;;;18.72;100.00
63654;BME280;49809;47.418;19.080;2022-08-24T00:33:19;100345.09;;;18.69;100.00
63654;BME280;49809;47.418;19.080;2022-08-24T00:36:24;100352.63;;;18.66;100.00
63654;BME280;49809;47.418;19.080;2022-08-24T00:39:30;100350.06;;;18.61;100.00
63654;BME280;49809;47.418;19.080;2022-08-24T00:42:36;100349.47;;;18.64;100.00
63654;BME280;49809;47.418;19.080;2022-08-24T00:45:44;100354.81;;;18.64;100.00
63654;BME280;49809;47.418;19.080;2022-08-24T00:48:50;100344.09;;;18.64;100.00
63654;BME280;49809;47.418;19.080;2022-08-24T00:52:10;100347.91;;;18.63;100.00
63654;BME280;49809;47.418;19.080;2022-08-24T00:58:46;100341.75;;;18.63;100.00
63654;BME280;49809;47.418;19.080;2022-08-24T01:02:06;100351.97;;;18.61;100.00
63654;BME280;49809;47.418;19.080;2022-08-24T01:05:26;100348.47;;;18.60;100.00
63654;BME280;49809;47.418;19.080;2022-08-24T01:08:30;100346.31;;;18.62;100.00
63654;BME280;49809;47.418;19.080;2022-08-24T01:11:37;100351.66;;;18.62;100.00
63654;BME280;49809;47.418;19.080;2022-08-24T01:14:42;100355.44;;;18.61;100.00
63654;BME280;49809;47.418;19.080;2022-08-24T01:17:45;100347.22;;;18.58;100.00
63654;BME280;49809;47.418;19.080;2022-08-24T01:21:27;100360.41;;;18.54;100.00
63654;BME280;49809;47.418;19.080;2022-08-24T01:24:34;100359.41;;;18.50;100.00
63654;BME280;49809;47.418;19.080;2022-08-24T01:27:41;100351.47;;;18.45;100.00
63654;BME280;49809;47.418;19.080;2022-08-24T01:30:46;100358.53;;;18.41;100.00
63654;BME280;49809;47.418;19.080;2022-08-24T01:33:54;100360.53;;;18.36;100.00
63654;BME280;49809;47.418;19.080;2022-08-24T01:36:57;100372.37;;;18.35;100.00
63654;BME280;49809;47.418;19.080;2022-08-24T01:40:05;100367.88;;;18.30;100.00
63654;BME280;49809;47.418;19.080;2022-08-24T01:43:09;100377.13;;;18.24;100.00
63654;BME280;49809;47.418;19.080;2022-08-24T01:46:13;100381.50;;;18.20;100.00
63654;BME280;49809;47.418;19.080;2022-08-24T01:49:18;100387.44;;;18.17;100.00
63654;BME280;49809;47.418;19.080;2022-08-24T01:52:27;100384.28;;;18.15;100.00
63654;BME280;49809;47.418;19.080;2022-08-24T01:55:52;100384.69;;;18.08;100.00
63654;BME280;49809;47.418;19.080;2022-08-24T01:58:57;100382.00;;;18.08;100.00
63654;BME280;49809;47.418;19.080;2022-08-24T02:02:18;100387.75;;;18.02;100.00
63654;BME280;49809;47.418;19.080;2022-08-24T02:05:22;100388.34;;;17.99;100.00
63654;BME280;49809;47.418;19.080;2022-08-24T02:08:32;100389.44;;;17.98;100.00
63654;BME280;49809;47.418;19.080;2022-08-24T02:11:38;100385.78;;;17.94;100.00
63654;BME280;49809;47.418;19.080;2022-08-24T02:14:43;100386.37;;;17.91;100.00
63654;BME280;49809;47.418;19.080;2022-08-24T02:17:48;100383.91;;;17.94;100.00
63654;BME280;49809;47.418;19.080;2022-08-24T02:20:54;100386.37;;;17.91;100.00
63654;BME280;49809;47.418;19.080;2022-08-24T02:23:58;100390.63;;;17.92;100.00
63654;BME280;49809;47.418;19.080;2022-08-24T02:27:04;100385.06;;;17.88;100.00
63654;BME280;49809;47.418;19.080;2022-08-24T02:30:10;100385.69;;;17.85;100.00
63654;BME280;49809;47.418;19.080;2022-08-24T02:33:37;100386.47;;;17.86;100.00
63654;BME280;49809;47.418;19.080;2022-08-24T02:36:41;100378.44;;;17.86;100.00
63654;BME280;49809;47.418;19.080;2022-08-24T02:39:45;100382.50;;;17.83;100.00
63654;BME280;49809;47.418;19.080;2022-08-24T02:42:49;100387.28;;;17.86;100.00
63654;BME280;49809;47.418;19.080;2022-08-24T02:45:52;100390.25;;;17.85;100.00
63654;BME280;49809;47.418;19.080;2022-08-24T02:48:58;100394.59;;;17.80;100.00
63654;BME280;49809;47.418;19.080;2022-08-24T02:52:15;100392.41;;;17.83;100.00
63654;BME280;49809;47.418;19.080;2022-08-24T02:55:18;100395.19;;;17.77;100.00
63654;BME280;49809;47.418;19.080;2022-08-24T02:58:25;100391.41;;;17.78;100.00
63654;BME280;49809;47.418;19.080;2022-08-24T03:01:31;100382.09;;;17.76;100.00
63654;BME280;49809;47.418;19.080;2022-08-24T03:04:35;100387.66;;;17.79;100.00
63654;BME280;49809;47.418;19.080;2022-08-24T03:07:38;100384.97;;;17.79;100.00
63654;BME280;49809;47.418;19.080;2022-08-24T03:10:43;100382.78;;;17.81;100.00
63654;BME280;49809;47.418;19.080;2022-08-24T03:13:47;100392.22;;;17.79;100.00
63654;BME280;49809;47.418;19.080;2022-08-24T03:16:53;100393.63;;;17.76;100.00
63654;BME280;49809;47.418;19.080;2022-08-24T03:19:56;100387.25;;;17.72;100.00
63654;BME280;49809;47.418;19.080;2022-08-24T03:23:10;100386.44;;;17.72;100.00
63654;BME280;49809;47.418;19.080;2022-08-24T03:26:13;100390.63;;;17.78;100.00
63654;BME280;49809;47.418;19.080;2022-08-24T03:29:19;100388.25;;;17.76;100.00
63654;BME280;49809;47.418;19.080;2022-08-24T03:32:26;100388.25;;;17.76;100.00
63654;BME280;49809;47.418;19.080;2022-08-24T03:35:30;100396.28;;;17.76;100.00
63654;BME280;49809;47.418;19.080;2022-08-24T03:38:35;100397.38;;;17.75;100.00
63654;BME280;49809;47.418;19.080;2022-08-24T03:41:41;100390.44;;;17.74;100.00
63654;BME280;49809;47.418;19.080;2022-08-24T03:44:47;100388.84;;;17.73;100.00
63654;BME280;49809;47.418;19.080;2022-08-24T03:47:53;100389.44;;;17.70;100.00
63654;BME280;49809;47.418;19.080;2022-08-24T03:51:00;100398.28;;;17.71;100.00
63654;BME280;49809;47.418;19.080;2022-08-24T03:54:08;100395.59;;;17.71;100.00
63654;BME280;49809;47.418;19.080;2022-08-24T03:57:17;100400.44;;;17.69;100.00
63654;BME280;49809;47.418;19.080;2022-08-24T04:00:21;100410.84;;;17.70;100.00
63654;BME280;49809;47.418;19.080;2022-08-24T04:03:25;100403.91;;;17.69;100.00
63654;BME280;49809;47.418;19.080;2022-08-24T04:06:35;100398.28;;;17.71;100.00
63654;BME280;49809;47.418;19.080;2022-08-24T04:09:39;100405.00;;;17.68;100.00
63654;BME280;49809;47.418;19.080;2022-08-24T04:12:45;100404.41;;;17.71;100.00
63654;BME280;49809;47.418;19.080;2022-08-24T04:15:52;100404.31;;;17.76;100.00
63654;BME280;49809;47.418;19.080;2022-08-24T04:18:56;100396.16;;;17.81;100.00
63654;BME280;49809;47.418;19.080;2022-08-24T04:21:59;100393.63;;;17.90;100.00
63654;BME280;49809;47.418;19.080;2022-08-24T04:25:07;100399.59;;;18.01;100.00
63654;BME280;49809;47.418;19.080;2022-08-24T04:28:17;100384.06;;;18.11;100.00
63654;BME280;49809;47.418;19.080;2022-08-24T04:31:20;100384.06;;;18.25;100.00
63654;BME280;49809;47.418;19.080;2022-08-24T04:34:46;100386.06;;;18.33;100.00
63654;BME280;49809;47.418;19.080;2022-08-24T04:37:49;100386.31;;;18.45;100.00
63654;BME280;49809;47.418;19.080;2022-08-24T04:40:52;100392.87;;;18.53;100.00
63654;BME280;49809;47.418;19.080;2022-08-24T04:43:57;100395.66;;;18.61;100.00
63654;BME280;49809;47.418;19.080;2022-08-24T04:47:01;100397.50;;;18.75;100.00
63654;BME280;49809;47.418;19.080;2022-08-24T04:50:07;100392.87;;;18.89;100.00
63654;BME280;49809;47.418;19.080;2022-08-24T04:53:13;100392.87;;;18.89;100.00
63654;BME280;49809;47.418;19.080;2022-08-24T04:56:21;100395.81;;;19.01;100.00
63654;BME280;49809;47.418;19.080;2022-08-24T04:59:54;100390.56;;;19.18;100.00
63654;BME280;49809;47.418;19.080;2022-08-24T05:03:00;100387.94;;;19.27;99.36
63654;BME280;49809;47.418;19.080;2022-08-24T05:06:05;100398.06;;;19.30;99.19
63654;BME280;49809;47.418;19.080;2022-08-24T05:09:12;100400.94;;;19.33;99.10
63654;BME280;49809;47.418;19.080;2022-08-24T05:12:18;100392.28;;;19.36;98.91
63654;BME280;49809;47.418;19.080;2022-08-24T05:15:23;100394.25;;;19.44;98.16
63654;BME280;49809;47.418;19.080;2022-08-24T05:18:28;100393.44;;;19.44;98.44
63654;BME280;49809;47.418;19.080;2022-08-24T05:21:34;100394.94;;;19.59;97.37
63654;BME280;49809;47.418;19.080;2022-08-24T05:24:37;100391.50;;;19.67;96.92
63654;BME280;49809;47.418;19.080;2022-08-24T05:27:40;100399.00;;;19.78;96.36
63654;BME280;49809;47.418;19.080;2022-08-24T05:30:43;100398.06;;;19.83;96.07
63654;BME280;49809;47.418;19.080;2022-08-24T05:33:48;100402.53;;;19.96;95.30
63654;BME280;49809;47.418;19.080;2022-08-24T05:36:52;100389.13;;;20.05;94.58
63654;BME280;49809;47.418;19.080;2022-08-24T05:40:09;100393.56;;;20.09;93.35
63654;BME280;49809;47.418;19.080;2022-08-24T05:43:15;100401.97;;;20.25;92.89
63654;BME280;49809;47.418;19.080;2022-08-24T05:46:18;100395.38;;;20.31;92.30
63654;BME280;49809;47.418;19.080;2022-08-24T05:49:28;100401.56;;;20.49;91.56
63654;BME280;49809;47.418;19.080;2022-08-24T05:52:33;100399.87;;;20.61;90.84
63654;BME280;49809;47.418;19.080;2022-08-24T05:55:37;100394.78;;;20.68;90.02
63654;BME280;49809;47.418;19.080;2022-08-24T05:58:44;100399.56;;;20.80;88.92
63654;BME280;49809;47.418;19.080;2022-08-24T06:01:48;100403.19;;;21.01;88.13
63654;BME280;49809;47.418;19.080;2022-08-24T06:04:55;100395.72;;;21.07;88.85
63654;BME280;49809;47.418;19.080;2022-08-24T06:08:01;100398.72;;;21.31;87.77
63654;BME280;49809;47.418;19.080;2022-08-24T06:11:10;100392.84;;;21.46;86.67
63654;BME280;49809;47.418;19.080;2022-08-24T06:14:16;100396.78;;;21.57;85.43
63654;BME280;49809;47.418;19.080;2022-08-24T06:17:32;100394.72;;;21.63;84.87
63654;BME280;49809;47.418;19.080;2022-08-24T06:20:40;100401.59;;;21.81;84.08
63654;BME280;49809;47.418;19.080;2022-08-24T06:23:48;100396.34;;;21.85;83.67
63654;BME280;49809;47.418;19.080;2022-08-24T06:26:54;100394.75;;;21.92;82.92
63654;BME280;49809;47.418;19.080;2022-08-24T06:30:20;100398.97;;;22.10;82.50
63654;BME280;49809;47.418;19.080;2022-08-24T06:33:35;100407.97;;;22.15;81.63
63654;BME280;49809;47.418;19.080;2022-08-24T06:36:38;100412.06;;;22.21;81.59
63654;BME280;49809;47.418;19.080;2022-08-24T06:39:42;100413.25;;;22.32;80.83
63654;BME280;49809;47.418;19.080;2022-08-24T06:42:47;100408.16;;;22.39;80.45
63654;BME280;49809;47.418;19.080;2022-08-24T06:45:54;100411.19;;;22.58;80.89
63654;BME280;49809;47.418;19.080;2022-08-24T06:49:01;100421.50;;;22.56;80.13
63654;BME280;49809;47.418;19.080;2022-08-24T06:52:09;100420.56;;;22.81;79.03
63654;BME280;49809;47.418;19.080;2022-08-24T06:55:33;100425.16;;;23.02;77.74
63654;BME280;49809;47.418;19.080;2022-08-24T06:58:37;100423.75;;;23.16;78.35
63654;BME280;49809;47.418;19.080;2022-08-24T07:01:41;100431.62;;;23.42;76.40
63654;BME280;49809;47.418;19.080;2022-08-24T07:04:48;100431.13;;;23.61;75.62
63654;BME280;49809;47.418;19.080;2022-08-24T07:07:55;100439.59;;;23.71;75.25
63654;BME280;49809;47.418;19.080;2022-08-24T07:11:01;100426.31;;;23.78;74.06
63654;BME280;49809;47.418;19.080;2022-08-24T07:14:05;100440.87;;;23.98;74.14
63654;BME280;49809;47.418;19.080;2022-08-24T07:17:08;100439.66;;;24.32;73.45
63654;BME280;49809;47.418;19.080;2022-08-24T07:20:12;100440.69;;;24.40;71.97
63654;BME280;49809;47.418;19.080;2022-08-24T07:23:18;100447.31;;;24.54;72.61
63654;BME280;49809;47.418;19.080;2022-08-24T07:26:33;100445.59;;;24.50;71.15
63654;BME280;49809;47.418;19.080;2022-08-24T07:29:53;100455.53;;;24.58;71.03
63654;BME280;49809;47.418;19.080;2022-08-24T07:33:14;100458.25;;;25.10;69.29
63654;BME280;49809;47.418;19.080;2022-08-24T07:36:19;100465.03;;;25.32;67.58
63654;BME280;49809;47.418;19.080;2022-08-24T07:39:25;100462.25;;;26.03;66.33
63654;BME280;49809;47.418;19.080;2022-08-24T07:42:32;100468.72;;;26.46;64.85
63654;BME280;49809;47.418;19.080;2022-08-24T07:45:39;100465.81;;;26.54;62.75
63654;BME280;49809;47.418;19.080;2022-08-24T07:48:44;100465.72;;;26.86;61.96
63654;BME280;49809;47.418;19.080;2022-08-24T07:51:48;100476.88;;;27.38;61.11
63654;BME280;49809;47.418;19.080;2022-08-24T07:55:07;100469.03;;;27.52;59.04
63654;BME280;49809;47.418;19.080;2022-08-24T07:58:35;100467.81;;;27.50;58.36
63654;BME280;49809;47.418;19.080;2022-08-24T08:01:58;100476.78;;;27.73;56.76
63654;BME280;49809;47.418;19.080;2022-08-24T08:05:08;100480.34;;;27.77;56.87
63654;BME280;49809;47.418;19.080;2022-08-24T08:08:45;100480.16;;;28.35;57.76
63654;BME280;49809;47.418;19.080;2022-08-24T08:11:53;100485.91;;;28.56;57.42
63654;BME280;49809;47.418;19.080;2022-08-24T08:15:27;100484.75;;;28.31;55.06
63654;BME280;49809;47.418;19.080;2022-08-24T08:18:34;100482.56;;;28.40;54.63
63654;BME280;49809;47.418;19.080;2022-08-24T08:21:43;100488.97;;;28.51;55.15
63654;BME280;49809;47.418;19.080;2022-08-24T08:25:23;100480.87;;;28.84;52.97
63654;BME280;49809;47.418;19.080;2022-08-24T08:28:29;100494.50;;;28.84;51.14
63654;BME280;49809;47.418;19.080;2022-08-24T08:31:53;100488.28;;;28.61;52.30
63654;BME280;49809;47.418;19.080;2022-08-24T08:35:14;100488.06;;;28.43;53.42
63654;BME280;49809;47.418;19.080;2022-08-24T08:38:40;100492.44;;;28.74;53.38
63654;BME280;49809;47.418;19.080;2022-08-24T08:42:08;100493.94;;;28.72;52.87
63654;BME280;49809;47.418;19.080;2022-08-24T08:46:12;100491.34;;;29.12;52.04
63654;BME280;49809;47.418;19.080;2022-08-24T09:26:47;100487.38;;;29.06;52.20
63654;BME280;49809;47.418;19.080;2022-08-24T09:30:39;100489.94;;;29.59;51.14
63654;BME280;49809;47.418;19.080;2022-08-24T10:07:53;100468.56;;;28.15;55.14
63654;BME280;49809;47.418;19.080;2022-08-24T10:11:41;100472.31;;;27.84;56.18
63654;BME280;49809;47.418;19.080;2022-08-24T10:15:29;100466.81;;;27.39;58.01
63654;BME280;49809;47.418;19.080;2022-08-24T10:19:29;100467.72;;;27.46;58.02
63654;BME280;49809;47.418;19.080;2022-08-24T10:27:11;100469.19;;;28.08;56.20
63654;BME280;49809;47.418;19.080;2022-08-24T10:30:56;100468.06;;;28.09;55.80
63654;BME280;49809;47.418;19.080;2022-08-24T10:38:21;100474.84;;;30.63;49.83
63654;BME280;49809;47.418;19.080;2022-08-24T10:47:14;100470.94;;;32.11;43.90
63654;BME280;49809;47.418;19.080;2022-08-24T10:54:34;100476.75;;;29.68;61.88
63654;BME280;49809;47.418;19.080;2022-08-24T11:02:03;100477.13;;;26.41;84.66
63654;BME280;49809;47.418;19.080;2022-08-24T11:05:49;100476.44;;;26.12;79.37
63654;BME280;49809;47.418;19.080;2022-08-24T11:12:41;100478.72;;;26.42;84.83
63654;BME280;49809;47.418;19.080;2022-08-24T11:15:53;100473.97;;;26.38;73.74
63654;BME280;49809;47.418;19.080;2022-08-24T11:19:28;100480.87;;;26.05;82.71
63654;BME280;49809;47.418;19.080;2022-08-24T11:23:07;100475.88;;;25.60;84.77
63654;BME280;49809;47.418;19.080;2022-08-24T11:30:28;100480.38;;;25.12;83.68
63654;BME280;49809;47.418;19.080;2022-08-24T11:34:04;100467.16;;;25.38;77.67
63654;BME280;49809;47.418;19.080;2022-08-24T11:37:34;100473.00;;;26.15;74.36
63654;BME280;49809;47.418;19.080;2022-08-24T11:41:06;100471.81;;;27.17;70.50
63654;BME280;49809;47.418;19.080;2022-08-24T11:44:48;100469.59;;;28.56;64.93
63654;BME280;49809;47.418;19.080;2022-08-24T11:52:42;100473.75;;;28.76;59.91
63654;BME280;49809;47.418;19.080;2022-08-24T11:56:57;100477.91;;;27.95;60.57
63654;BME280;49809;47.418;19.080;2022-08-24T12:00:39;100478.56;;;28.86;59.38
63654;BME280;49809;47.418;19.080;2022-08-24T12:04:32;100478.88;;;28.81;57.35
63654;BME280;49809;47.418;19.080;2022-08-24T12:16:20;100485.19;;;28.10;59.46
63654;BME280;49809;47.418;19.080;2022-08-24T12:19:59;100489.19;;;28.16;59.30
63654;BME280;49809;47.418;19.080;2022-08-24T12:23:39;100481.66;;;28.09;58.50
63654;BME280;49809;47.418;19.080;2022-08-24T12:31:25;100487.34;;;28.01;62.35
63654;BME280;49809;47.418;19.080;2022-08-24T12:35:07;100491.81;;;27.67;62.21
63654;BME280;49809;47.418;19.080;2022-08-24T12:42:36;100484.72;;;27.01;65.21
63654;BME280;49809;47.418;19.080;2022-08-24T12:46:11;100482.75;;;26.48;72.31
63654;BME280;49809;47.418;19.080;2022-08-24T13:04:43;100483.59;;;24.17;84.45
63654;BME280;49809;47.418;19.080;2022-08-24T13:08:40;100480.56;;;24.31;85.76
63654;BME280;49809;47.418;19.080;2022-08-24T13:16:09;100489.22;;;24.00;86.74
63654;BME280;49809;47.418;19.080;2022-08-24T13:26:43;100500.34;;;22.91;100.00
63654;BME280;49809;47.418;19.080;2022-08-24T15:20:38;100497.19;;;23.51;100.00
63654;BME280;49809;47.418;19.080;2022-08-24T15:28:14;100503.78;;;23.62;100.00
63654;BME280;49809;47.418;19.080;2022-08-24T15:31:42;100505.81;;;23.77;100.00
63654;BME280;49809;47.418;19.080;2022-08-24T15:34:58;100508.09;;;23.88;100.00
63654;BME280;49809;47.418;19.080;2022-08-24T15:41:40;100500.03;;;24.00;94.76
63654;BME280;49809;47.418;19.080;2022-08-24T15:44:51;100491.81;;;24.08;95.55
63654;BME280;49809;47.418;19.080;2022-08-24T15:47:57;100489.22;;;24.12;93.44
63654;BME280;49809;47.418;19.080;2022-08-24T15:51:07;100480.47;;;24.27;93.65
63654;BME280;49809;47.418;19.080;2022-08-24T15:54:35;100485.53;;;24.41;90.45
63654;BME280;49809;47.418;19.080;2022-08-24T16:02:19;100492.81;;;24.77;83.61
63654;BME280;49809;47.418;19.080;2022-08-24T16:05:55;100496.97;;;24.86;84.30
63654;BME280;49809;47.418;19.080;2022-08-24T16:09:34;100487.59;;;24.84;82.06
63654;BME280;49809;47.418;19.080;2022-08-24T16:16:43;100485.81;;;24.76;82.23
63654;BME280;49809;47.418;19.080;2022-08-24T16:20:02;100479.78;;;24.54;84.13
63654;BME280;49809;47.418;19.080;2022-08-24T16:23:27;100482.50;;;24.42;81.79
63654;BME280;49809;47.418;19.080;2022-08-24T16:27:15;100472.56;;;24.46;82.32
63654;BME280;49809;47.418;19.080;2022-08-24T16:37:32;100459.50;;;24.48;81.10
63654;BME280;49809;47.418;19.080;2022-08-24T16:41:02;100462.19;;;24.36;82.68
63654;BME280;49809;47.418;19.080;2022-08-24T16:44:17;100472.69;;;24.25;83.54
63654;BME280;49809;47.418;19.080;2022-08-24T16:47:46;100468.00;;;24.02;83.62
63654;BME280;49809;47.418;19.080;2022-08-24T16:51:12;100465.34;;;24.14;83.75
63654;BME280;49809;47.418;19.080;2022-08-24T16:54:41;100477.28;;;24.01;88.29
63654;BME280;49809;47.418;19.080;2022-08-24T16:57:55;100482.44;;;23.94;88.27
63654;BME280;49809;47.418;19.080;2022-08-24T17:01:09;100483.78;;;23.88;86.50
63654;BME280;49809;47.418;19.080;2022-08-24T17:04:39;100481.28;;;23.82;87.40
63654;BME280;49809;47.418;19.080;2022-08-24T17:08:09;100492.97;;;23.74;88.30
63654;BME280;49809;47.418;19.080;2022-08-24T17:11:29;100491.66;;;23.80;87.01
63654;BME280;49809;47.418;19.080;2022-08-24T17:14:44;100494.56;;;23.75;89.44
63654;BME280;49809;47.418;19.080;2022-08-24T17:18:11;100497.47;;;23.70;88.82
63654;BME280;49809;47.418;19.080;2022-08-24T17:21:34;100496.44;;;23.63;92.33
63654;BME280;49809;47.418;19.080;2022-08-24T17:25:06;100497.31;;;23.55;90.39
63654;BME280;49809;47.418;19.080;2022-08-24T17:28:38;100502.97;;;23.41;90.90
63654;BME280;49809;47.418;19.080;2022-08-24T17:31:54;100513.78;;;23.41;91.39
63654;BME280;49809;47.418;19.080;2022-08-24T17:35:24;100510.38;;;23.32;90.99
63654;BME280;49809;47.418;19.080;2022-08-24T17:38:28;100524.19;;;23.30;89.83
63654;BME280;49809;47.418;19.080;2022-08-24T17:41:44;100525.88;;;23.23;91.11
63654;BME280;49809;47.418;19.080;2022-08-24T17:45:07;100525.47;;;23.12;90.86
63654;BME280;49809;47.418;19.080;2022-08-24T17:48:34;100530.94;;;23.04;91.39
63654;BME280;49809;47.418;19.080;2022-08-24T17:51:45;100530.59;;;22.84;91.61
63654;BME280;49809;47.418;19.080;2022-08-24T17:55:05;100539.06;;;22.74;90.98
63654;BME280;49809;47.418;19.080;2022-08-24T17:58:23;100534.94;;;22.68;92.56
63654;BME280;49809;47.418;19.080;2022-08-24T18:02:04;100534.38;;;22.54;92.13
63654;BME280;49809;47.418;19.080;2022-08-24T18:05:20;100543.31;;;22.46;91.56
63654;BME280;49809;47.418;19.080;2022-08-24T18:08:51;100540.00;;;22.32;89.62
63654;BME280;49809;47.418;19.080;2022-08-24T18:12:08;100543.53;;;22.24;91.06
63654;BME280;49809;47.418;19.080;2022-08-24T18:15:27;100546.75;;;22.08;92.01
63654;BME280;49809;47.418;19.080;2022-08-24T18:18:50;100553.91;;;22.04;92.18
63654;BME280;49809;47.418;19.080;2022-08-24T18:22:06;100557.88;;;21.98;91.95
63654;BME280;49809;47.418;19.080;2022-08-24T18:25:49;100563.28;;;21.98;92.07
63654;BME280;49809;47.418;19.080;2022-08-24T18:29:16;100570.91;;;21.88;93.46
63654;BME280;49809;47.418;19.080;2022-08-24T18:32:35;100567.25;;;21.75;94.49
63654;BME280;49809;47.418;19.080;2022-08-24T18:35:53;100560.78;;;21.67;94.90
63654;BME280;49809;47.418;19.080;2022-08-24T18:39:22;100564.88;;;21.56;95.76
63654;BME280;49809;47.418;19.080;2022-08-24T18:42:41;100568.84;;;21.50;96.00
63654;BME280;49809;47.418;19.080;2022-08-24T18:46:09;100572.03;;;21.44;96.06
63654;BME280;49809;47.418;19.080;2022-08-24T18:49:21;100565.38;;;21.41;97.06
63654;BME280;49809;47.418;19.080;2022-08-24T18:52:25;100571.53;;;21.33;98.07
63654;BME280;49809;47.418;19.080;2022-08-24T18:55:40;100573.59;;;21.28;99.08
63654;BME280;49809;47.418;19.080;2022-08-24T18:59:03;100571.06;;;21.22;99.56
63654;BME280;49809;47.418;19.080;2022-08-24T19:05:48;100577.34;;;21.09;100.00
63654;BME280;49809;47.418;19.080;2022-08-24T19:09:09;100580.81;;;21.01;100.00
63654;BME280;49809;47.418;19.080;2022-08-24T19:12:28;100585.87;;;20.94;100.00
63654;BME280;49809;47.418;19.080;2022-08-24T19:16:00;100577.31;;;20.92;100.00
63654;BME280;49809;47.418;19.080;2022-08-24T19:19:24;100578.88;;;20.93;100.00
63654;BME280;49809;47.418;19.080;2022-08-24T19:22:51;100586.50;;;20.91;100.00
63654;BME280;49809;47.418;19.080;2022-08-24T19:26:25;100584.91;;;20.90;100.00
63654;BME280;49809;47.418;19.080;2022-08-24T19:29:40;100589.94;;;20.83;100.00
63654;BME280;49809;47.418;19.080;2022-08-24T19:33:08;100592.78;;;20.78;100.00
63654;BME280;49809;47.418;19.080;2022-08-24T19:36:34;100577.72;;;20.77;100.00
63654;BME280;49809;47.418;19.080;2022-08-24T19:40:04;100583.41;;;20.67;100.00
63654;BME280;49809;47.418;19.080;2022-08-24T19:43:11;100579.13;;;20.66;100.00
63654;BME280;49809;47.418;19.080;2022-08-24T19:46:41;100586.41;;;20.65;100.00
63654;BME280;49809;47.418;19.080;2022-08-24T19:50:06;100591.16;;;20.68;100.00
63654;BME280;49809;47.418;19.080;2022-08-24T19:53:40;100592.59;;;20.66;100.00
63654;BME280;49809;47.418;19.080;2022-08-24T19:56:59;100596.50;;;20.60;100.00
63654;BME280;49809;47.418;19.080;2022-08-24T20:03:36;100598.84;;;20.53;100.00
63654;BME280;49809;47.418;19.080;2022-08-24T20:07:04;100613.53;;;20.47;100.00
63654;BME280;49809;47.418;19.080;2022-08-24T20:10:36;100606.87;;;20.44;100.00
63654;BME280;49809;47.418;19.080;2022-08-24T20:13:59;100609.87;;;20.43;100.00
63654;BME280;49809;47.418;19.080;2022-08-24T20:17:20;100600.84;;;20.38;100.00
63654;BME280;49809;47.418;19.080;2022-08-24T20:20:51;100595.78;;;20.37;100.00
63654;BME280;49809;47.418;19.080;2022-08-24T20:23:59;100595.12;;;20.31;100.00
63654;BME280;49809;47.418;19.080;2022-08-24T20:27:22;100590.31;;;20.28;100.00
63654;BME280;49809;47.418;19.080;2022-08-24T20:30:38;100593.91;;;20.24;100.00
63654;BME280;49809;47.418;19.080;2022-08-24T20:33:43;100594.72;;;20.24;100.00
63654;BME280;49809;47.418;19.080;2022-08-24T20:36:49;100599.50;;;20.27;100.00
63654;BME280;49809;47.418;19.080;2022-08-24T20:40:19;100602.31;;;20.22;100.00
63654;BME280;49809;47.418;19.080;2022-08-24T20:43:47;100604.69;;;20.24;100.00
63654;BME280;49809;47.418;19.080;2022-08-24T20:46:52;100601.69;;;20.25;100.00
63654;BME280;49809;47.418;19.080;2022-08-24T20:50:22;100597.13;;;20.26;100.00
63654;BME280;49809;47.418;19.080;2022-08-24T20:53:49;100596.31;;;20.25;100.00
63654;BME280;49809;47.418;19.080;2022-08-24T20:57:07;100598.19;;;20.25;100.00
63654;BME280;49809;47.418;19.080;2022-08-24T21:00:27;100607.50;;;20.19;100.00
63654;BME280;49809;47.418;19.080;2022-08-24T21:03:45;100611.59;;;20.16;100.00
63654;BME280;49809;47.418;19.080;2022-08-24T21:07:00;100600.34;;;20.14;100.00
63654;BME280;49809;47.418;19.080;2022-08-24T21:10:21;100597.19;;;20.12;100.00
63654;BME280;49809;47.418;19.080;2022-08-24T21:14:01;100604.75;;;20.10;100.00
63654;BME280;49809;47.418;19.080;2022-08-24T21:17:31;100617.09;;;20.11;100.00
63654;BME280;49809;47.418;19.080;2022-08-24T21:20:47;100618.31;;;20.05;100.00
63654;BME280;49809;47.418;19.080;2022-08-24T21:24:15;100618.66;;;20.04;100.00
63654;BME280;49809;47.418;19.080;2022-08-24T21:27:20;100611.38;;;20.04;100.00
63654;BME280;49809;47.418;19.080;2022-08-24T21:30:26;100617.34;;;20.01;100.00
63654;BME280;49809;47.418;19.080;2022-08-24T21:33:42;100614.19;;;19.99;100.00
63654;BME280;49809;47.418;19.080;2022-08-24T21:37:29;100614.00;;;19.95;100.00
63654;BME280;49809;47.418;19.080;2022-08-24T21:40:56;100613.81;;;19.92;100.00